Terminal Aerodrome Forecast
Issued by NWS

Current Version | Previous Version | Text Only | Print | Product List | Glossary On
Versions: 1 2 3 4 5 6 7 8 9 10 11 12
000
FTUS43 KFGF 281140
TAFDVL
TAF
KDVL 281140Z 2812/2912 20007KT P6SM SCT080 BKN200
     FM281800 27012G20KT P6SM SCT250
     FM282200 32010G18KT P6SM FEW250
     FM290200 VRB04KT P6SM SKC
      AMD LTD TO CLD VIS AND WIND=

USA.gov is the U.S. government's official web portal to all federal, state and local government web resources and services.